Sumner, WA

6:42 AM PST on February 06, 2016 (GMT -0800)
Sky Island | | Change Station
CLOSE
Current Station
Personal Weather Station
Location: Bonney Lake, WA
Elevation: 584 ft
Nearby Weather Stations

Elev 584 ft 47.17 °N, 122.19 °W | Updated 27 seconds ago

Overcast
Overcast
42.3 °F
Feels Like 35 °F
N
13.0
Wind Variable Wind from WSW
Gusts 15.0 mph

Today
High -- | Low -- °F
--% Chance of Precip.
Yesterday
High -- | Low -- °F
Precip. -- in
Pressure 30.43 in
Visibility 10.0 miles
Clouds Mostly Cloudy 2800 ft
Overcast 3400 ft
Windchill 35 °F
Dew Point 26 °F
Humidity 51%
Rainfall 0.11 in
Snow Depth Not available.
7:27 AM 5:18 PM
Waning Crescent, 5% visible
METAR KPLU 061415Z AUTO 00000KT 10SM BKN028 OVC034 06/06 A3043 RMK AO2
Pressure 30.43 in
Visibility 10.0 miles
Clouds Mostly Cloudy 2800 ft
Overcast 3400 ft
Windchill 35 °F
Dew Point 26 °F
Humidity 51%
Rainfall 0.11 in
Snow Depth Not available.
7:27 AM 5:18 PM
Waning Crescent, 5% visible
METAR KPLU 061415Z AUTO 00000KT 10SM BKN028 OVC034 06/06 A3043 RMK AO2

10-Day Weather Forecast

Almanac

Astronomy

Feb. 06, 2016 Rise Set
Actual Time
Civil Twilight
Nautical Twilight
Astronomical Twilight
Moon
Length of Visible Light
Length of Day
Tomorrow will be .
, % of the Moon is Illuminated

Today's Extremes

State Highs State Lows

Community

WunderPhotos

Upload Photos

1,890,983 photos uploaded!

WunderBlog® & News

Nearby

Air Quality

  Air Quality AQ Index Pollutant
Not available.

Snow Depth

Station Depth Elevation

Earthquake Activity

City Distance Mag. Time & Date
Minimum magnitude displayed is 2.5.

Coastal Water Temperatures

Place Temperature

Stations

Nearby Weather Stations

Station Location Temp. Windchill Dew Point Humidity Wind Precip. Elev Updated Type
                   

Watches & Warnings

There are currently no watches in effect.